LFRD 221500Z AUTO 23013KT 9999 OVC020 13/10 Q1028 TEMPO 4000 -DZ BKN010

ElémentsDécodage
LFRD Station météo située sur l'aérodrome de DINARD Pleurtuit-Saint-Malo
221500Z émis le 22 du mois à 15h00 UTC
AUTO Bulletin édité par un automate
23013KT vent du 230°, 13 noeuds
9999 visibilité horizontale supérieure à 10 Km
OVC020 couverture nuageuse totale (8/8) à 2000 pieds
13/10 température 13°C, point de rosée 10°C
 soit une humidité relative de 82%
Q1028 la pression au niveau de la mer (QNH) est de 1028 hPa
TEMPO fluctuation temporaire prévue
4000 visibilité horizontale de 4000 mètres
-DZ faible bruine
BKN010 nuages morcelés (5/8 à 7/8) à 1000 pieds